Time;durP1;ratioP1;P1;durP2;ratioP2;P2;SDS_P1;SDS_P2;PMS_P1;PMS_P2;Temp;Humidity;BMP_temperature;BMP_pressure;BME280_temperature;BME280_humidity;BME280_pressure;Samples;Min_cycle;Max_cycle;Signal;HPM_P1;HPM_P2
2023/01/01 00:02:00;;;;;;;;;5.67;4.00;;;;;15.34;48.04;100919.00;5078844;27;48091;-68
2023/01/01 00:04:26;;;;;;;;;6.00;4.33;;;;;15.34;48.60;100910.22;5093863;27;45364;-67
2023/01/01 00:06:52;;;;;;;;;8.00;5.33;;;;;15.45;48.41;100921.50;5081762;27;45433;-66
2023/01/01 00:12:02;;;;;;;;;4.00;4.00;;;;;15.31;48.88;100897.06;5093281;27;45729;-67
2023/01/01 00:14:28;;;;;;;;;6.00;4.33;;;;;15.46;48.99;100915.31;5089546;27;45509;-68
2023/01/01 00:16:56;;;;;;;;;6.67;5.00;;;;;15.45;49.04;100921.50;5083629;27;45513;-64
2023/01/01 00:19:21;;;;;;;;;3.00;3.00;;;;;15.40;49.48;100933.84;5094351;27;45446;-66
2023/01/01 00:21:47;;;;;;;;;7.67;5.33;;;;;15.32;49.22;100915.50;5095739;27;45370;-67
2023/01/01 00:24:12;;;;;;;;;4.67;3.67;;;;;15.32;49.62;100901.44;5078884;27;45564;-66
2023/01/01 00:26:38;;;;;;;;;8.33;6.67;;;;;15.36;49.64;100932.19;5093682;27;45753;-63
2023/01/01 00:29:04;;;;;;;;;7.00;5.00;;;;;15.43;49.61;100937.34;5086134;27;45803;-65
2023/01/01 00:31:31;;;;;;;;;6.00;4.00;;;;;15.41;50.24;100927.69;5088798;27;46491;-63
2023/01/01 00:33:57;;;;;;;;;5.33;5.33;;;;;15.38;49.81;100933.03;5084449;27;45839;-68
2023/01/01 00:36:25;;;;;;;;;9.00;8.00;;;;;15.35;50.82;100915.47;5084629;27;45819;-65
2023/01/01 00:38:51;;;;;;;;;5.00;5.00;;;;;15.40;50.45;100915.38;5078291;27;45528;-68
2023/01/01 00:41:17;;;;;;;;;5.00;4.67;;;;;15.40;50.09;100920.66;5093240;27;45604;-70
2023/01/01 00:43:43;;;;;;;;;6.00;4.33;;;;;15.40;50.35;100929.47;5083543;27;45835;-67
2023/01/01 00:46:10;;;;;;;;;7.00;6.00;;;;;15.43;50.73;100939.13;5091691;27;45318;-66
2023/01/01 00:48:36;;;;;;;;;10.00;5.67;;;;;15.42;50.59;100929.44;5077561;27;45343;-67
2023/01/01 00:51:03;;;;;;;;;7.33;6.00;;;;;15.26;50.53;100897.13;5090486;27;45485;-67
2023/01/01 00:53:29;;;;;;;;;3.33;3.33;;;;;15.36;50.86;100925.13;5096050;27;45506;-66
2023/01/01 00:55:55;;;;;;;;;7.33;6.67;;;;;15.32;50.86;100899.66;5085613;27;45354;-64
2023/01/01 00:58:23;;;;;;;;;4.00;4.00;;;;;15.34;50.92;100912.84;5095994;27;45443;-65
2023/01/01 01:00:50;;;;;;;;;4.67;4.67;;;;;15.37;50.77;100924.22;5079906;27;45514;-66
2023/01/01 01:03:27;;;;;;;;;5.67;5.67;;;;;15.31;51.15;100910.28;5086433;27;45640;-68
2023/01/01 01:05:58;;;;;;;;;6.33;5.00;;;;;15.31;50.88;100926.97;5088520;27;45532;-66
2023/01/01 01:08:25;;;;;;;;;5.00;5.00;;;;;15.31;51.45;100913.78;5091550;27;46549;-68
2023/01/01 01:10:52;;;;;;;;;5.00;5.00;;;;;15.33;51.35;100919.00;5087942;27;45513;-65
2023/01/01 01:13:17;;;;;;;;;5.00;5.00;;;;;15.34;51.51;100919.00;5078101;27;45528;-66
2023/01/01 01:15:43;;;;;;;;;7.67;6.00;;;;;15.30;51.76;100924.34;5076202;27;45572;-66
2023/01/01 01:18:12;;;;;;;;;5.33;5.33;;;;;15.34;51.76;100926.03;5086789;27;45634;-67
2023/01/01 01:20:39;;;;;;;;;8.33;5.67;;;;;15.35;52.01;100930.41;5097579;27;46052;-67
2023/01/01 01:23:04;;;;;;;;;7.00;6.00;;;;;15.36;51.59;100943.59;5086122;27;45441;-66
2023/01/01 01:25:30;;;;;;;;;4.33;4.33;;;;;15.36;51.97;100940.09;5096530;27;45302;-68
2023/01/01 01:27:56;;;;;;;;;9.00;5.33;;;;;15.32;51.98;100935.75;5096111;27;45549;-67
2023/01/01 01:30:21;;;;;;;;;4.67;4.67;;;;;15.36;51.86;100940.09;5097410;27;45506;-67
2023/01/01 01:32:47;;;;;;;;;7.67;5.33;;;;;15.33;52.20;100942.75;5070483;27;45457;-67
2023/01/01 01:35:12;;;;;;;;;7.00;6.00;;;;;15.32;52.26;100947.16;5096500;27;45648;-67
2023/01/01 01:37:38;;;;;;;;;7.00;6.33;;;;;15.22;52.47;100932.38;5098432;27;45347;-66
2023/01/01 01:40:04;;;;;;;;;6.67;6.00;;;;;15.27;52.76;100938.44;5079835;27;46821;-66
2023/01/01 01:42:30;;;;;;;;;7.00;6.00;;;;;15.30;52.51;100943.69;5095498;27;46127;-67
2023/01/01 01:44:59;;;;;;;;;6.67;5.33;;;;;15.30;52.87;100953.38;5077275;27;45530;-66
2023/01/01 01:47:49;;;;;;;;;8.00;7.33;;;;;15.26;53.04;100961.34;5099968;27;45307;-64
2023/01/01 01:50:28;;;;;;;;;8.33;6.00;;;;;15.27;53.05;100973.63;5099706;27;46613;-67
2023/01/01 01:53:08;;;;;;;;;11.00;5.33;;;;;15.30;53.12;100971.84;5099793;27;45456;-67
2023/01/01 01:55:40;;;;;;;;;8.33;6.00;;;;;15.32;53.07;100973.56;5096006;27;45485;-67
2023/01/01 01:58:10;;;;;;;;;8.67;7.00;;;;;15.19;53.38;100958.81;5096196;27;45395;-66
2023/01/01 02:00:36;;;;;;;;;5.67;5.33;;;;;15.24;53.59;100976.31;5099033;27;46096;-67
2023/01/01 02:03:07;;;;;;;;;6.33;5.67;;;;;15.26;53.65;100971.88;5097364;27;45682;-64
2023/01/01 02:05:34;;;;;;;;;6.67;5.00;;;;;15.30;53.58;100988.53;5095371;27;45763;-63
2023/01/01 02:08:02;;;;;;;;;6.00;5.33;;;;;15.22;53.91;100972.81;5095860;27;45394;-65
2023/01/01 02:10:28;;;;;;;;;6.00;5.00;;;;;15.23;53.73;100982.50;5098432;27;45573;-67
2023/01/01 02:12:54;;;;;;;;;9.67;6.00;;;;;15.23;54.24;100982.50;5095688;27;45460;-66
2023/01/01 02:15:24;;;;;;;;;5.33;4.33;;;;;15.23;54.17;100986.88;5078848;27;45879;-67
2023/01/01 02:18:00;;;;;;;;;11.00;7.00;;;;;15.18;54.25;100970.25;5097621;27;45390;-67
2023/01/01 02:20:35;;;;;;;;;7.33;4.00;;;;;15.19;54.38;101001.88;5076403;27;46984;-66
2023/01/01 02:23:20;;;;;;;;;5.67;5.00;;;;;15.16;54.43;101006.31;5094772;27;45777;-66
2023/01/01 02:26:08;;;;;;;;;7.67;6.33;;;;;15.13;54.22;100994.03;5087542;27;45484;-66
2023/01/01 02:28:40;;;;;;;;;9.33;6.00;;;;;15.16;54.92;100995.75;5096694;27;45367;-67
2023/01/01 02:31:08;;;;;;;;;6.00;6.00;;;;;15.08;54.97;100985.31;5093605;27;46727;-66
2023/01/01 02:33:35;;;;;;;;;9.33;7.33;;;;;15.08;55.04;100984.44;5098338;27;45355;-65
2023/01/01 02:36:03;;;;;;;;;6.00;5.00;;;;;15.09;55.10;101000.28;5076304;27;45350;-64
2023/01/01 02:38:33;;;;;;;;;6.67;6.00;;;;;15.11;55.16;101008.13;5097258;27;45467;-67
2023/01/01 02:41:09;;;;;;;;;6.67;5.00;;;;;15.11;55.38;101000.22;5078404;27;45479;-66
2023/01/01 02:43:53;;;;;;;;;6.67;6.00;;;;;15.00;55.86;100989.81;5077067;27;45468;-69
2023/01/01 02:46:23;;;;;;;;;5.67;5.67;;;;;15.04;55.57;101021.44;5087241;27;45450;-66
2023/01/01 02:48:52;;;;;;;;;6.33;5.33;;;;;14.95;55.95;101004.81;5099624;27;45570;-66
2023/01/01 02:51:55;;;;;;;;;5.67;5.00;;;;;15.05;55.90;101032.84;5096853;27;46192;-66
2023/01/01 02:55:10;;;;;;;;;7.33;6.00;;;;;15.00;55.97;101008.28;5094522;27;45560;-67
2023/01/01 03:01:31;;;;;;;;;7.33;5.67;;;;;15.00;55.85;101019.72;5087734;27;45437;-68
2023/01/01 03:04:40;;;;;;;;;6.67;5.00;;;;;15.09;56.18;101037.19;5059982;27;47626;-68
2023/01/01 03:07:54;;;;;;;;;6.00;6.00;;;;;15.05;56.04;101035.47;5095008;27;45487;-68
2023/01/01 03:10:59;;;;;;;;;8.33;6.67;;;;;14.98;56.36;101033.81;5076642;27;45818;-66
2023/01/01 03:13:39;;;;;;;;;5.67;5.00;;;;;14.95;56.43;101028.53;5083559;27;45515;-65
2023/01/01 03:16:15;;;;;;;;;6.67;4.33;;;;;14.94;56.68;101019.75;5093971;27;46620;-66
2023/01/01 03:19:09;;;;;;;;;8.33;7.33;;;;;14.98;56.64;101013.56;5096862;27;45405;-64
2023/01/01 03:21:40;;;;;;;;;9.33;8.67;;;;;14.97;56.40;101013.59;5092096;27;45544;-63
2023/01/01 03:24:11;;;;;;;;;6.00;6.00;;;;;15.01;56.92;101029.34;5095649;27;45363;-66
2023/01/01 03:26:39;;;;;;;;;5.67;5.00;;;;;14.92;56.85;101028.59;5098393;27;45574;-66
2023/01/01 03:29:09;;;;;;;;;10.33;7.00;;;;;14.91;56.92;101032.13;5046682;27;45458;-66
2023/01/01 03:31:37;;;;;;;;;8.00;7.00;;;;;14.88;56.96;101037.41;5098566;27;45515;-67
2023/01/01 03:34:06;;;;;;;;;7.00;5.67;;;;;14.95;57.23;101037.34;5079590;27;45637;-66
2023/01/01 03:36:36;;;;;;;;;9.33;7.00;;;;;14.95;57.00;101044.38;5093999;27;45799;-67
2023/01/01 03:39:11;;;;;;;;;8.00;5.00;;;;;14.93;57.40;101048.81;5093981;27;45413;-66
2023/01/01 03:41:45;;;;;;;;;8.33;5.00;;;;;14.86;57.53;101050.63;5093932;27;45790;-64
2023/01/01 03:44:26;;;;;;;;;12.33;9.00;;;;;14.90;57.60;101048.81;5076137;27;45404;-66
2023/01/01 03:46:52;;;;;;;;;9.00;5.00;;;;;14.89;57.57;101061.16;5098184;27;46098;-65
2023/01/01 03:49:19;;;;;;;;;5.00;4.00;;;;;14.84;57.75;101055.91;5097846;27;45427;-65
2023/01/01 03:51:57;;;;;;;;;7.00;6.00;;;;;14.81;57.78;101053.31;5095432;27;45538;-65
2023/01/01 03:54:41;;;;;;;;;9.00;6.00;;;;;14.88;57.92;101053.25;5093804;27;45571;-64
2023/01/01 03:57:19;;;;;;;;;5.33;5.33;;;;;14.85;57.99;101059.41;5092837;27;46772;-64
2023/01/01 04:00:03;;;;;;;;;5.33;4.67;;;;;14.88;58.11;101069.06;5097790;27;45390;-65
2023/01/01 04:02:39;;;;;;;;;5.67;5.67;;;;;14.82;57.87;101064.72;5094758;27;45389;-64
2023/01/01 04:05:09;;;;;;;;;8.00;6.00;;;;;14.81;58.26;101055.09;5094181;27;45481;-66
2023/01/01 04:07:34;;;;;;;;;9.67;7.33;;;;;14.89;58.36;101069.06;5092832;27;46479;-64
2023/01/01 04:10:01;;;;;;;;;5.00;5.00;;;;;14.87;58.21;101078.75;5098269;27;45521;-64
2023/01/01 04:12:29;;;;;;;;;8.33;4.67;;;;;14.80;58.32;101083.19;5079820;27;45503;-64
2023/01/01 04:14:55;;;;;;;;;7.67;6.00;;;;;14.82;58.47;101088.47;5097857;27;45512;-66
2023/01/01 04:17:20;;;;;;;;;7.00;5.00;;;;;14.76;58.82;101080.59;5097517;27;45476;-64
2023/01/01 04:19:46;;;;;;;;;6.33;5.00;;;;;14.80;58.90;101092.88;5095811;27;45591;-66
2023/01/01 04:22:11;;;;;;;;;6.33;6.33;;;;;14.78;58.85;101079.72;5092887;27;45460;-65
2023/01/01 04:24:37;;;;;;;;;7.33;6.00;;;;;14.72;58.98;101073.63;5098503;27;45362;-65
2023/01/01 04:27:03;;;;;;;;;7.67;5.33;;;;;14.74;59.10;101078.00;5101274;27;46301;-64
2023/01/01 04:29:28;;;;;;;;;7.00;5.00;;;;;14.74;59.00;101087.69;5098673;27;45430;-64
2023/01/01 04:31:54;;;;;;;;;7.00;7.00;;;;;14.59;58.95;101079.03;5097066;27;45591;-64
2023/01/01 04:34:19;;;;;;;;;7.33;5.67;;;;;14.63;59.40;101085.13;5101691;27;45417;-67
2023/01/01 04:36:45;;;;;;;;;8.67;4.67;;;;;14.62;59.00;101089.53;5099738;27;47750;-64
2023/01/01 04:39:10;;;;;;;;;6.33;5.33;;;;;14.73;59.18;101102.59;5101441;27;45353;-66
2023/01/01 04:41:36;;;;;;;;;8.00;5.00;;;;;14.66;59.33;101084.22;5101171;27;45472;-65
2023/01/01 04:44:02;;;;;;;;;5.00;4.67;;;;;14.63;59.28;101086.00;5079924;27;45456;-65
2023/01/01 04:46:27;;;;;;;;;5.33;4.33;;;;;14.62;59.29;101083.41;5096279;27;45503;-66
2023/01/01 04:48:53;;;;;;;;;8.00;5.00;;;;;14.69;59.62;101089.47;5097329;27;45450;-65
2023/01/01 04:51:20;;;;;;;;;6.67;4.33;;;;;14.76;59.29;101099.06;5100509;27;45450;-63
2023/01/01 04:53:46;;;;;;;;;5.33;5.00;;;;;14.79;59.51;101099.91;5097237;27;45409;-65
2023/01/01 04:56:14;;;;;;;;;6.00;4.33;;;;;14.77;59.69;101106.09;5096646;27;46247;-65
2023/01/01 04:58:41;;;;;;;;;6.00;5.33;;;;;14.80;59.50;101108.69;5099852;27;45343;-68
2023/01/01 05:01:13;;;;;;;;;8.67;5.33;;;;;14.61;59.65;101090.41;5100562;27;45303;-65
2023/01/01 05:03:38;;;;;;;;;5.67;5.33;;;;;14.68;59.86;101096.50;5096498;27;45739;-64
2023/01/01 05:06:10;;;;;;;;;7.00;5.00;;;;;14.68;59.90;101101.78;5095942;27;45497;-65
2023/01/01 05:08:38;;;;;;;;;8.33;5.00;;;;;14.65;60.38;101099.19;5096616;27;45504;-64
2023/01/01 05:11:08;;;;;;;;;5.67;5.33;;;;;14.67;60.23;101104.44;5078013;27;45514;-67
2023/01/01 05:13:35;;;;;;;;;5.33;4.00;;;;;14.63;60.29;101108.84;5096507;27;45394;-66
2023/01/01 05:16:06;;;;;;;;;5.67;3.00;;;;;14.63;60.65;101125.53;5099684;27;46222;-65
2023/01/01 05:18:32;;;;;;;;;7.33;5.00;;;;;14.68;60.31;101122.88;5100263;27;45884;-66
2023/01/01 05:21:02;;;;;;;;;9.00;5.33;;;;;14.60;60.55;101124.72;5099949;27;45625;-64
2023/01/01 05:23:29;;;;;;;;;7.00;6.00;;;;;14.54;60.53;101114.22;5100585;27;45520;-66
2023/01/01 05:25:55;;;;;;;;;8.67;5.00;;;;;14.60;60.57;101143.16;5096772;27;45404;-65
2023/01/01 05:28:22;;;;;;;;;8.67;7.67;;;;;14.58;60.65;101123.84;5095790;27;45303;-63
2023/01/01 05:30:48;;;;;;;;;6.00;5.00;;;;;14.61;61.16;101144.91;5096417;27;45929;-66
2023/01/01 05:33:13;;;;;;;;;9.00;5.33;;;;;14.54;60.99;101151.97;5096048;27;45859;-65
2023/01/01 05:35:39;;;;;;;;;9.00;7.33;;;;;14.58;61.10;101155.47;5094925;27;47107;-65
2023/01/01 05:38:05;;;;;;;;;10.33;5.00;;;;;14.51;61.32;101124.75;5095353;27;45792;-67
2023/01/01 05:40:30;;;;;;;;;6.33;5.00;;;;;14.53;61.17;101163.38;5096441;27;45475;-67
2023/01/01 05:42:56;;;;;;;;;6.00;5.33;;;;;14.51;61.47;101169.56;5077491;27;45488;-63
2023/01/01 05:45:21;;;;;;;;;10.00;6.00;;;;;14.38;61.43;101134.53;5082093;27;46535;-66
2023/01/01 05:47:47;;;;;;;;;8.67;7.67;;;;;14.55;61.47;101160.78;5100622;27;45482;-66
2023/01/01 05:50:13;;;;;;;;;6.00;5.00;;;;;14.51;61.46;101164.28;5100422;27;45302;-66
2023/01/01 05:52:38;;;;;;;;;12.67;6.00;;;;;14.48;61.42;101151.13;5097753;27;45409;-64
2023/01/01 05:55:04;;;;;;;;;6.00;4.67;;;;;14.57;61.33;101170.44;5095635;27;46361;-66
2023/01/01 05:57:30;;;;;;;;;10.67;6.00;;;;;14.42;61.32;101152.91;5095541;27;45678;-64
2023/01/01 05:59:55;;;;;;;;;4.67;4.00;;;;;14.59;61.79;101170.41;5095913;27;45431;-66
2023/01/01 06:02:21;;;;;;;;;7.00;5.67;;;;;14.52;61.55;101172.19;5079065;27;45862;-67
2023/01/01 06:04:46;;;;;;;;;8.33;6.33;;;;;14.53;61.86;101176.56;5099819;27;45677;-67
2023/01/01 06:07:12;;;;;;;;;6.00;6.00;;;;;14.50;61.64;101187.13;5079072;27;45636;-65
2023/01/01 06:09:37;;;;;;;;;7.33;6.00;;;;;14.49;61.62;101179.22;5096059;27;45850;-66
2023/01/01 06:12:03;;;;;;;;;3.67;2.00;;;;;14.45;61.88;101159.94;5099048;27;45501;-67
2023/01/01 06:14:29;;;;;;;;;9.33;7.33;;;;;14.39;61.76;101150.31;5095023;27;45835;-65
2023/01/01 06:16:54;;;;;;;;;6.00;4.67;;;;;14.50;62.13;101149.34;5095814;27;45519;-66
2023/01/01 06:19:20;;;;;;;;;8.33;6.00;;;;;14.40;62.17;101151.16;5079357;27;45450;-67
2023/01/01 06:21:45;;;;;;;;;5.00;4.00;;;;;14.44;61.89;101158.19;5099888;27;45452;-67
2023/01/01 06:24:11;;;;;;;;;9.00;5.00;;;;;14.49;62.08;101144.97;5096531;27;45472;-66
2023/01/01 06:26:37;;;;;;;;;6.00;5.67;;;;;14.51;62.20;101154.59;5095166;27;45931;-66
2023/01/01 06:29:03;;;;;;;;;8.33;5.33;;;;;14.48;62.30;101153.78;5098186;27;45539;-67
2023/01/01 06:31:29;;;;;;;;;4.33;4.00;;;;;14.48;62.33;101154.66;5077242;27;45516;-66
2023/01/01 06:33:56;;;;;;;;;6.00;3.33;;;;;14.41;62.06;101132.72;5096988;27;45588;-67
2023/01/01 06:36:33;;;;;;;;;6.33;5.33;;;;;14.38;62.03;101139.78;5099881;27;45467;-68
2023/01/01 06:39:07;;;;;;;;;4.33;4.00;;;;;14.32;62.56;101129.28;5077546;27;45497;-68
2023/01/01 06:41:46;;;;;;;;;8.00;5.00;;;;;14.33;62.56;101134.56;5094096;27;45618;-68
2023/01/01 06:44:12;;;;;;;;;5.33;4.00;;;;;14.28;62.63;101149.50;5094937;27;46090;-64
2023/01/01 06:46:47;;;;;;;;;7.33;5.00;;;;;14.37;62.54;101165.25;5093802;27;45420;-68
2023/01/01 06:49:20;;;;;;;;;5.00;4.00;;;;;14.06;62.77;101116.28;5097983;27;45526;-70
2023/01/01 06:51:46;;;;;;;;;4.33;4.33;;;;;14.40;62.68;101169.63;5099064;27;45397;-67
2023/01/01 06:54:11;;;;;;;;;6.00;4.33;;;;;14.34;62.45;101178.44;5076726;27;47921;-66
2023/01/01 06:56:37;;;;;;;;;5.67;4.33;;;;;14.36;63.06;101179.31;5096082;27;45436;-68
2023/01/01 06:59:03;;;;;;;;;3.00;3.00;;;;;14.40;62.84;101173.16;5096442;27;45964;-68
2023/01/01 07:01:31;;;;;;;;;7.67;5.00;;;;;14.37;63.18;101185.47;5095026;27;45676;-67
2023/01/01 07:04:06;;;;;;;;;6.00;5.00;;;;;14.38;63.32;101203.03;5094342;27;46021;-67
2023/01/01 07:06:33;;;;;;;;;5.67;5.00;;;;;14.35;63.44;101206.53;5093711;27;45815;-66
2023/01/01 07:09:00;;;;;;;;;7.33;5.67;;;;;14.33;62.97;101196.91;5066006;27;45438;-66
2023/01/01 07:11:26;;;;;;;;;5.33;4.00;;;;;14.38;63.12;101208.31;5093111;27;45462;-67
2023/01/01 07:13:53;;;;;;;;;5.67;4.00;;;;;14.38;63.41;101206.53;5094479;27;46921;-67
2023/01/01 07:16:20;;;;;;;;;10.33;3.67;;;;;14.35;63.05;101203.91;5094942;27;45727;-66
2023/01/01 07:18:47;;;;;;;;;3.67;3.33;;;;;14.45;62.87;101217.03;5094410;27;45421;-66
2023/01/01 07:21:42;;;;;;;;;7.33;5.00;;;;;14.45;63.33;101224.94;5094696;27;45342;-65
2023/01/01 07:24:10;;;;;;;;;5.33;4.00;;;;;14.45;63.15;101224.94;5094294;27;45432;-67
2023/01/01 07:26:36;;;;;;;;;6.00;5.00;;;;;14.47;63.16;101228.44;5096775;27;45397;-68
2023/01/01 07:29:02;;;;;;;;;7.33;4.00;;;;;14.42;63.31;101231.97;5098167;27;45500;-67
2023/01/01 07:31:27;;;;;;;;;5.00;5.00;;;;;14.33;63.36;101228.50;5094491;27;45279;-64
2023/01/01 07:33:53;;;;;;;;;5.33;4.00;;;;;14.36;63.51;101229.38;5094152;27;46255;-66
2023/01/01 07:36:18;;;;;;;;;6.00;4.00;;;;;14.41;63.43;101246.03;5096573;27;45590;-65
2023/01/01 07:38:44;;;;;;;;;6.33;5.33;;;;;14.38;63.49;101234.66;5098056;27;45449;-64
2023/01/01 07:41:09;;;;;;;;;5.00;4.00;;;;;14.28;63.99;101241.72;5098467;27;45841;-65
2023/01/01 07:43:35;;;;;;;;;4.67;4.67;;;;;14.31;64.13;101251.38;5098660;27;45395;-65
2023/01/01 07:46:01;;;;;;;;;4.00;4.00;;;;;14.38;64.28;101258.38;5094143;27;45538;-67
2023/01/01 07:48:27;;;;;;;;;4.67;4.33;;;;;14.22;64.19;101218.06;5093990;27;45458;-67
2023/01/01 07:50:53;;;;;;;;;4.67;4.00;;;;;14.31;64.33;101228.53;5093914;27;45944;-65
2023/01/01 07:53:18;;;;;;;;;6.00;4.33;;;;;14.34;63.49;101243.47;5093952;27;45511;-65
2023/01/01 07:55:44;;;;;;;;;8.00;6.33;;;;;14.31;64.30;101251.38;5086198;27;45409;-65
2023/01/01 07:58:11;;;;;;;;;5.00;5.00;;;;;14.34;64.19;101257.50;5091654;27;45446;-64
2023/01/01 08:00:37;;;;;;;;;5.00;4.00;;;;;14.20;63.58;101235.63;5097942;27;45416;-64
2023/01/01 08:03:03;;;;;;;;;5.00;5.00;;;;;14.38;63.76;101275.06;5096445;27;45413;-64
2023/01/01 08:05:29;;;;;;;;;7.33;3.00;;;;;14.41;63.92;101282.94;5093959;27;45401;-65
2023/01/01 08:07:55;;;;;;;;;5.67;4.00;;;;;14.36;63.53;101266.28;5092729;27;45710;-65
2023/01/01 08:10:22;;;;;;;;;5.00;5.00;;;;;14.41;63.75;101280.31;5093421;27;45501;-66
2023/01/01 08:12:48;;;;;;;;;8.33;4.00;;;;;14.49;63.78;101293.44;5093241;27;45856;-66
2023/01/01 08:15:14;;;;;;;;;10.33;5.00;;;;;14.51;63.61;101291.66;5083548;27;45837;-66
2023/01/01 08:17:39;;;;;;;;;6.00;5.00;;;;;14.47;63.32;101294.31;5093533;27;45574;-63
2023/01/01 08:20:06;;;;;;;;;7.33;5.00;;;;;14.40;63.17;101278.56;5093448;27;45574;-64
2023/01/01 08:22:31;;;;;;;;;5.00;3.33;;;;;14.42;63.07;101291.72;5090151;27;45528;-66
2023/01/01 08:24:57;;;;;;;;;7.33;3.00;;;;;14.34;63.80;101269.81;5092541;27;45650;-64
2023/01/01 08:27:23;;;;;;;;;4.67;3.67;;;;;14.45;63.41;101304.00;5093527;27;45691;-66
2023/01/01 08:29:48;;;;;;;;;8.33;5.00;;;;;14.44;63.66;101311.03;5087791;27;45401;-65
2023/01/01 08:32:14;;;;;;;;;4.00;3.00;;;;;14.45;64.16;101309.28;5097408;27;45631;-64
2023/01/01 08:34:39;;;;;;;;;3.33;3.33;;;;;14.51;63.97;101312.75;5097904;27;45371;-65
2023/01/01 08:37:06;;;;;;;;;6.00;5.00;;;;;14.47;63.62;101311.00;5096904;27;45530;-67
2023/01/01 08:39:31;;;;;;;;;3.33;3.33;;;;;14.45;63.79;101302.25;5073486;27;45574;-67
2023/01/01 08:41:57;;;;;;;;;6.67;5.00;;;;;14.50;63.38;101315.38;5095984;27;46139;-67
2023/01/01 08:44:23;;;;;;;;;4.00;4.00;;;;;14.49;63.46;101318.91;5076828;27;45695;-65
2023/01/01 08:46:51;;;;;;;;;4.00;4.00;;;;;14.47;63.48;101312.78;5074050;27;45429;-67
2023/01/01 08:49:16;;;;;;;;;5.67;4.00;;;;;14.41;63.72;101313.69;5092191;27;45369;-66
2023/01/01 08:51:42;;;;;;;;;6.00;5.00;;;;;14.39;63.77;101328.63;5092259;27;45624;-66
2023/01/01 08:54:07;;;;;;;;;5.00;4.00;;;;;14.39;64.04;101321.59;5089519;27;45398;-66
2023/01/01 08:56:33;;;;;;;;;8.67;4.00;;;;;14.43;63.50;101328.63;5093006;27;45502;-64
2023/01/01 08:58:59;;;;;;;;;4.67;4.67;;;;;14.42;63.87;101313.66;5086375;27;45429;-65
2023/01/01 09:01:26;;;;;;;;;8.00;5.00;;;;;14.36;64.16;101312.84;5093897;27;45834;-65
2023/01/01 09:03:52;;;;;;;;;8.00;5.33;;;;;14.36;64.16;101305.81;5094196;27;45521;-65
2023/01/01 09:06:18;;;;;;;;;7.33;4.00;;;;;14.42;64.12;101310.16;5093107;27;45570;-66
2023/01/01 09:08:44;;;;;;;;;7.33;5.00;;;;;14.45;64.27;101314.53;5095895;27;45451;-67
2023/01/01 09:11:21;;;;;;;;;5.00;3.00;;;;;14.40;63.93;101306.66;5099536;27;45762;-64
2023/01/01 09:13:47;;;;;;;;;5.33;3.67;;;;;14.40;63.95;101297.00;5099545;27;45445;-66
2023/01/01 09:16:14;;;;;;;;;7.67;5.33;;;;;14.42;63.96;101296.97;5087522;27;45358;-65
2023/01/01 09:18:40;;;;;;;;;18.00;12.67;;;;;14.43;64.57;101289.09;5096893;27;45488;-66
2023/01/01 09:21:05;;;;;;;;;6.67;5.00;;;;;14.43;64.02;101286.44;5080176;27;47100;-67
2023/01/01 09:23:31;;;;;;;;;5.67;5.00;;;;;14.39;64.09;101297.88;5099738;27;45587;-65
2023/01/01 09:26:04;;;;;;;;;7.00;4.67;;;;;14.31;64.61;101283.88;5100289;27;45437;-64
2023/01/01 09:28:30;;;;;;;;;7.67;3.67;;;;;14.33;64.63;101284.75;5098787;27;46810;-66
2023/01/01 09:30:55;;;;;;;;;4.67;4.67;;;;;14.33;64.43;101281.22;5102947;27;47108;-65
2023/01/01 09:33:21;;;;;;;;;4.00;4.00;;;;;14.29;64.56;101280.38;5096131;27;45365;-66
2023/01/01 09:35:46;;;;;;;;;7.67;5.67;;;;;14.31;65.02;101281.25;5097405;27;45284;-66
2023/01/01 09:38:12;;;;;;;;;5.00;5.00;;;;;14.25;64.66;101278.63;5096562;27;45582;-68
2023/01/01 09:40:53;;;;;;;;;4.67;3.67;;;;;14.23;64.98;101280.38;5091374;27;45774;-66
2023/01/01 09:43:41;;;;;;;;;3.33;2.00;;;;;14.27;65.08;101284.75;5088107;27;45455;-66
2023/01/01 09:46:09;;;;;;;;;5.00;5.00;;;;;14.28;65.02;101280.38;5086422;27;45489;-67
2023/01/01 09:48:40;;;;;;;;;5.33;5.00;;;;;14.29;64.75;101290.91;5100159;27;45522;-68
2023/01/01 09:51:14;;;;;;;;;8.33;5.00;;;;;14.23;65.04;101285.66;5095324;27;45705;-67
2023/01/01 09:53:47;;;;;;;;;9.00;4.00;;;;;14.32;64.98;101297.91;5077236;27;45326;-67
2023/01/01 09:56:25;;;;;;;;;6.00;6.00;;;;;14.00;64.54;101257.66;5096172;27;45556;-66
2023/01/01 09:58:50;;;;;;;;;7.33;5.00;;;;;14.35;64.62;101324.25;5096094;27;45494;-67
2023/01/01 10:01:32;;;;;;;;;7.33;5.00;;;;;14.36;64.87;101324.25;5095603;27;45910;-66
2023/01/01 10:04:39;;;;;;;;;7.67;4.33;;;;;14.39;64.68;101328.63;5095920;27;45668;-66
2023/01/01 10:07:36;;;;;;;;;6.00;2.67;;;;;14.44;64.61;101324.22;5090700;27;45413;-67
2023/01/01 10:10:17;;;;;;;;;6.00;4.00;;;;;14.47;64.63;101328.59;5096974;27;45832;-67
2023/01/01 10:13:21;;;;;;;;;8.33;5.00;;;;;14.41;64.30;101333.00;5099486;27;46185;-69
2023/01/01 10:16:00;;;;;;;;;7.67;4.67;;;;;14.40;64.89;101333.91;5095916;27;45653;-66
2023/01/01 10:18:33;;;;;;;;;5.67;3.67;;;;;14.43;64.58;101336.53;5082841;27;45436;-66
2023/01/01 10:21:12;;;;;;;;;6.00;4.67;;;;;14.37;64.37;101312.81;5081375;27;45663;-66
2023/01/01 10:23:43;;;;;;;;;6.67;5.00;;;;;14.36;64.80;101323.38;5099989;27;46423;-67
2023/01/01 10:26:17;;;;;;;;;6.67;4.67;;;;;14.34;64.82;101320.75;5094150;27;45294;-67
2023/01/01 10:28:54;;;;;;;;;4.67;4.67;;;;;14.35;64.76;101329.53;5063970;27;45452;-66
2023/01/01 10:31:46;;;;;;;;;9.33;7.00;;;;;14.31;65.04;101323.41;5095541;27;45667;-68
2023/01/01 10:34:20;;;;;;;;;7.67;5.67;;;;;14.31;64.61;101312.00;5094932;27;46238;-66
2023/01/01 10:36:46;;;;;;;;;9.67;6.33;;;;;14.28;65.08;101307.59;5094939;27;45556;-65
2023/01/01 10:39:17;;;;;;;;;11.00;7.00;;;;;14.27;65.10;101308.47;5095027;27;45445;-65
2023/01/01 10:41:46;;;;;;;;;7.33;5.33;;;;;14.25;65.06;101315.50;5076295;27;45580;-67
2023/01/01 10:44:14;;;;;;;;;5.00;5.00;;;;;14.23;65.46;101298.81;5095478;27;45565;-66
2023/01/01 10:46:46;;;;;;;;;9.00;5.33;;;;;14.25;65.26;101302.34;5098028;27;45576;-67
2023/01/01 10:49:14;;;;;;;;;8.67;7.00;;;;;14.21;65.06;101290.94;5094883;27;45506;-65
2023/01/01 10:51:47;;;;;;;;;7.00;7.00;;;;;14.09;65.62;101274.28;5095360;27;45763;-67
2023/01/01 10:54:35;;;;;;;;;6.33;6.33;;;;;14.18;65.68;101290.06;5095260;27;46459;-66
2023/01/01 10:57:36;;;;;;;;;7.00;6.67;;;;;14.11;65.95;101272.53;5086817;27;45360;-67
2023/01/01 11:00:17;;;;;;;;;9.33;4.67;;;;;14.17;65.19;101277.78;5094656;27;45527;-66
2023/01/01 11:02:43;;;;;;;;;12.33;7.33;;;;;14.12;65.33;101253.25;5092961;27;45563;-67
2023/01/01 11:05:20;;;;;;;;;8.33;6.00;;;;;14.18;65.51;101253.19;5097319;27;45642;-67
2023/01/01 11:07:46;;;;;;;;;5.00;4.33;;;;;14.23;65.54;101256.66;5095344;27;45371;-66
2023/01/01 11:10:21;;;;;;;;;5.67;5.00;;;;;14.21;66.00;101261.06;5094862;27;45414;-66
2023/01/01 11:12:49;;;;;;;;;6.67;6.33;;;;;14.10;66.30;101241.81;5094448;27;45611;-67
2023/01/01 11:15:38;;;;;;;;;5.67;5.00;;;;;14.14;66.06;101261.97;5076459;27;47329;-68
2023/01/01 11:18:13;;;;;;;;;13.33;7.33;;;;;14.05;66.58;101238.31;5093618;27;45465;-66
2023/01/01 11:20:40;;;;;;;;;8.00;5.67;;;;;14.15;66.72;101247.94;5094457;27;45383;-65
2023/01/01 11:23:32;;;;;;;;;6.33;5.00;;;;;14.15;66.15;101243.53;5094566;27;45954;-66
2023/01/01 11:26:01;;;;;;;;;7.33;7.33;;;;;14.10;66.77;101237.44;5075843;27;47986;-63
2023/01/01 11:28:30;;;;;;;;;10.00;6.00;;;;;14.11;66.25;101225.13;5093583;27;45683;-67
2023/01/01 11:31:14;;;;;;;;;8.33;7.00;;;;;14.07;66.67;101215.47;5078856;27;45480;-66
2023/01/01 11:33:53;;;;;;;;;11.33;5.00;;;;;14.10;66.38;101215.50;5093871;27;45898;-65
2023/01/01 11:36:28;;;;;;;;;15.33;6.33;;;;;14.13;66.39;101204.94;5096593;27;46228;-65
2023/01/01 11:39:16;;;;;;;;;7.00;6.33;;;;;14.14;66.64;101204.94;5098454;27;45413;-63
2023/01/01 11:41:54;;;;;;;;;6.00;5.00;;;;;14.03;66.89;101182.16;5082642;27;45511;-62
2023/01/01 11:44:39;;;;;;;;;13.00;7.00;;;;;14.15;66.95;101196.13;5096424;27;45246;-64
2023/01/01 11:47:07;;;;;;;;;8.67;7.00;;;;;14.07;66.84;101183.88;5093329;27;45715;-66